sensor_id;sensor_type;location;lat;lon;timestamp;pressure;altitude;pressure_sealevel;temperature;humidity
34237;BME280;20501;45.956;13.632;2023-02-12T00:01:08;102198.66;;;7.87;43.85
34237;BME280;20501;45.956;13.632;2023-02-12T00:03:34;102203.00;;;8.56;43.26
34237;BME280;20501;45.956;13.632;2023-02-12T00:06:00;102199.56;;;9.00;42.06
34237;BME280;20501;45.956;13.632;2023-02-12T00:08:26;102211.16;;;8.86;42.54
34237;BME280;20501;45.956;13.632;2023-02-12T00:10:52;102201.53;;;9.12;41.92
34237;BME280;20501;45.956;13.632;2023-02-12T00:13:17;102211.72;;;9.07;41.82
34237;BME280;20501;45.956;13.632;2023-02-12T00:15:42;102204.97;;;9.45;41.26
34237;BME280;20501;45.956;13.632;2023-02-12T00:18:08;102203.91;;;8.87;42.44
34237;BME280;20501;45.956;13.632;2023-02-12T00:20:35;102206.66;;;8.05;40.45
34237;BME280;20501;45.956;13.632;2023-02-12T00:23:01;102200.31;;;8.56;41.67
34237;BME280;20501;45.956;13.632;2023-02-12T00:25:26;102201.75;;;8.29;41.76
34237;BME280;20501;45.956;13.632;2023-02-12T00:27:52;102199.53;;;7.00;41.23
34237;BME280;20501;45.956;13.632;2023-02-12T00:30:17;102204.63;;;7.59;42.95
34237;BME280;20501;45.956;13.632;2023-02-12T00:32:44;102206.19;;;6.56;39.92
34237;BME280;20501;45.956;13.632;2023-02-12T00:35:11;102202.47;;;7.66;42.98
34237;BME280;20501;45.956;13.632;2023-02-12T00:37:36;102199.06;;;8.45;42.59
34237;BME280;20501;45.956;13.632;2023-02-12T00:40:02;102207.47;;;7.89;40.92
34237;BME280;20501;45.956;13.632;2023-02-12T00:42:27;102203.44;;;7.98;43.38
34237;BME280;20501;45.956;13.632;2023-02-12T00:44:53;102207.19;;;7.78;43.65
34237;BME280;20501;45.956;13.632;2023-02-12T00:47:18;102206.84;;;8.98;41.36
34237;BME280;20501;45.956;13.632;2023-02-12T00:49:44;102201.25;;;8.55;42.21
34237;BME280;20501;45.956;13.632;2023-02-12T00:52:09;102201.09;;;5.51;43.47
34237;BME280;20501;45.956;13.632;2023-02-12T00:54:34;102202.44;;;4.54;50.72
34237;BME280;20501;45.956;13.632;2023-02-12T00:57:00;102199.13;;;3.00;51.54
34237;BME280;20501;45.956;13.632;2023-02-12T00:59:26;102208.06;;;3.76;51.67
34237;BME280;20501;45.956;13.632;2023-02-12T01:01:53;102208.34;;;4.16;49.34
34237;BME280;20501;45.956;13.632;2023-02-12T01:04:19;102200.75;;;3.81;50.39
34237;BME280;20501;45.956;13.632;2023-02-12T01:06:45;102209.25;;;3.17;50.66
34237;BME280;20501;45.956;13.632;2023-02-12T01:09:11;102202.72;;;4.24;48.58
34237;BME280;20501;45.956;13.632;2023-02-12T01:11:36;102215.47;;;5.07;45.19
34237;BME280;20501;45.956;13.632;2023-02-12T01:14:02;102206.97;;;5.80;46.29
34237;BME280;20501;45.956;13.632;2023-02-12T01:16:27;102201.56;;;7.32;44.76
34237;BME280;20501;45.956;13.632;2023-02-12T01:18:53;102198.63;;;8.37;42.36
34237;BME280;20501;45.956;13.632;2023-02-12T01:21:22;102196.91;;;8.68;41.41
34237;BME280;20501;45.956;13.632;2023-02-12T01:23:48;102203.84;;;8.40;40.89
34237;BME280;20501;45.956;13.632;2023-02-12T01:26:15;102194.16;;;7.70;42.18
34237;BME280;20501;45.956;13.632;2023-02-12T01:28:42;102198.31;;;8.10;42.60
34237;BME280;20501;45.956;13.632;2023-02-12T01:31:10;102186.66;;;7.59;42.58
34237;BME280;20501;45.956;13.632;2023-02-12T01:33:35;102180.97;;;7.66;42.99
34237;BME280;20501;45.956;13.632;2023-02-12T01:36:01;102172.38;;;8.25;42.53
34237;BME280;20501;45.956;13.632;2023-02-12T01:38:26;102180.66;;;8.54;41.68
34237;BME280;20501;45.956;13.632;2023-02-12T01:40:51;102173.59;;;8.19;42.94
34237;BME280;20501;45.956;13.632;2023-02-12T01:43:17;102171.25;;;8.77;41.88
34237;BME280;20501;45.956;13.632;2023-02-12T01:45:48;102175.28;;;7.54;42.38
34237;BME280;20501;45.956;13.632;2023-02-12T01:48:19;102160.94;;;7.71;43.02
34237;BME280;20501;45.956;13.632;2023-02-12T01:50:47;102168.13;;;8.20;42.31
34237;BME280;20501;45.956;13.632;2023-02-12T01:53:14;102171.66;;;8.05;42.81
34237;BME280;20501;45.956;13.632;2023-02-12T01:55:46;102170.84;;;8.99;40.92
34237;BME280;20501;45.956;13.632;2023-02-12T01:58:12;102164.06;;;7.80;39.26
34237;BME280;20501;45.956;13.632;2023-02-12T02:00:38;102156.47;;;8.20;42.61
34237;BME280;20501;45.956;13.632;2023-02-12T02:03:04;102149.91;;;7.42;43.46
34237;BME280;20501;45.956;13.632;2023-02-12T02:08:03;102154.16;;;8.30;41.53
34237;BME280;20501;45.956;13.632;2023-02-12T02:10:29;102160.94;;;7.71;40.64
34237;BME280;20501;45.956;13.632;2023-02-12T02:12:55;102154.91;;;8.64;41.70
34237;BME280;20501;45.956;13.632;2023-02-12T02:15:41;102157.25;;;8.06;39.60
34237;BME280;20501;45.956;13.632;2023-02-12T02:18:23;102147.38;;;7.73;42.72
34237;BME280;20501;45.956;13.632;2023-02-12T02:32:42;102144.94;;;8.34;41.90
34237;BME280;20501;45.956;13.632;2023-02-12T02:35:23;102151.53;;;7.63;42.11
34237;BME280;20501;45.956;13.632;2023-02-12T02:37:59;102145.72;;;8.20;42.47
34237;BME280;20501;45.956;13.632;2023-02-12T02:43:19;102126.59;;;8.09;42.18
34237;BME280;20501;45.956;13.632;2023-02-12T02:45:51;102120.66;;;4.69;45.03
34237;BME280;20501;45.956;13.632;2023-02-12T02:48:26;102117.03;;;5.92;46.04
34237;BME280;20501;45.956;13.632;2023-02-12T02:51:01;102124.72;;;6.56;43.00
34237;BME280;20501;45.956;13.632;2023-02-12T02:53:36;102131.22;;;7.57;43.59
34237;BME280;20501;45.956;13.632;2023-02-12T02:56:06;102133.47;;;8.46;42.01
34237;BME280;20501;45.956;13.632;2023-02-12T02:58:43;102128.13;;;9.07;40.49
34237;BME280;20501;45.956;13.632;2023-02-12T03:01:25;102125.69;;;8.88;40.99
34237;BME280;20501;45.956;13.632;2023-02-12T03:04:04;102131.50;;;5.88;45.70
34237;BME280;20501;45.956;13.632;2023-02-12T03:06:54;102127.13;;;7.99;43.00
34237;BME280;20501;45.956;13.632;2023-02-12T03:12:13;102136.63;;;4.92;43.54
34237;BME280;20501;45.956;13.632;2023-02-12T03:14:45;102135.59;;;6.16;45.17
34237;BME280;20501;45.956;13.632;2023-02-12T03:17:15;102136.31;;;6.93;41.74
34237;BME280;20501;45.956;13.632;2023-02-12T03:19:49;102128.63;;;7.55;42.95
34237;BME280;20501;45.956;13.632;2023-02-12T03:22:22;102122.00;;;6.75;40.54
34237;BME280;20501;45.956;13.632;2023-02-12T03:24:54;102120.34;;;7.92;42.48
34237;BME280;20501;45.956;13.632;2023-02-12T03:27:31;102123.22;;;8.37;41.55
34237;BME280;20501;45.956;13.632;2023-02-12T03:29:57;102119.41;;;8.25;41.32
34237;BME280;20501;45.956;13.632;2023-02-12T03:32:39;102116.38;;;8.15;41.46
34237;BME280;20501;45.956;13.632;2023-02-12T03:35:21;102118.69;;;8.54;39.29
34237;BME280;20501;45.956;13.632;2023-02-12T03:37:57;102117.00;;;7.71;41.28
34237;BME280;20501;45.956;13.632;2023-02-12T03:40:33;102113.31;;;8.54;41.00
34237;BME280;20501;45.956;13.632;2023-02-12T03:45:55;102118.97;;;8.95;40.54
34237;BME280;20501;45.956;13.632;2023-02-12T03:53:25;102119.91;;;8.80;40.03
34237;BME280;20501;45.956;13.632;2023-02-12T03:56:09;102105.53;;;8.79;40.57
34237;BME280;20501;45.956;13.632;2023-02-12T03:58:37;102108.41;;;8.76;40.33
34237;BME280;20501;45.956;13.632;2023-02-12T04:01:05;102110.13;;;7.65;42.57
34237;BME280;20501;45.956;13.632;2023-02-12T04:03:31;102120.31;;;8.88;40.96
34237;BME280;20501;45.956;13.632;2023-02-12T04:05:57;102134.88;;;8.54;41.47
34237;BME280;20501;45.956;13.632;2023-02-12T04:08:23;102141.22;;;8.99;40.73
34237;BME280;20501;45.956;13.632;2023-02-12T04:13:40;102145.06;;;8.48;38.78
34237;BME280;20501;45.956;13.632;2023-02-12T04:18:45;102145.97;;;8.31;39.14
34237;BME280;20501;45.956;13.632;2023-02-12T04:30:04;102148.06;;;4.53;44.39
34237;BME280;20501;45.956;13.632;2023-02-12T04:32:42;102133.16;;;4.24;45.36
34237;BME280;20501;45.956;13.632;2023-02-12T04:35:24;102121.50;;;5.33;46.40
34237;BME280;20501;45.956;13.632;2023-02-12T04:38:19;102146.84;;;6.24;45.73
34237;BME280;20501;45.956;13.632;2023-02-12T04:40:47;102143.91;;;7.37;43.36
34237;BME280;20501;45.956;13.632;2023-02-12T04:43:13;102141.88;;;7.92;41.67
34237;BME280;20501;45.956;13.632;2023-02-12T04:45:39;102135.41;;;7.63;42.26
34237;BME280;20501;45.956;13.632;2023-02-12T04:48:05;102143.06;;;7.02;41.97
34237;BME280;20501;45.956;13.632;2023-02-12T04:50:38;102148.44;;;7.70;41.83
34237;BME280;20501;45.956;13.632;2023-02-12T04:53:04;102146.47;;;7.90;40.71
34237;BME280;20501;45.956;13.632;2023-02-12T04:55:29;102147.69;;;8.00;38.41
34237;BME280;20501;45.956;13.632;2023-02-12T04:57:55;102157.50;;;6.99;42.50
34237;BME280;20501;45.956;13.632;2023-02-12T05:00:20;102153.34;;;7.62;42.76
34237;BME280;20501;45.956;13.632;2023-02-12T05:02:46;102150.84;;;8.41;40.66
34237;BME280;20501;45.956;13.632;2023-02-12T05:05:11;102150.91;;;5.14;44.72
34237;BME280;20501;45.956;13.632;2023-02-12T05:07:37;102149.84;;;5.38;43.27
34237;BME280;20501;45.956;13.632;2023-02-12T05:10:02;102137.31;;;6.55;43.09
34237;BME280;20501;45.956;13.632;2023-02-12T05:12:28;102139.06;;;7.26;42.83
34237;BME280;20501;45.956;13.632;2023-02-12T05:14:53;102127.63;;;7.90;41.32
34237;BME280;20501;45.956;13.632;2023-02-12T05:17:21;102137.75;;;7.18;41.48
34237;BME280;20501;45.956;13.632;2023-02-12T05:19:47;102149.16;;;7.90;40.84
34237;BME280;20501;45.956;13.632;2023-02-12T05:22:12;102147.59;;;7.86;41.59
34237;BME280;20501;45.956;13.632;2023-02-12T05:24:37;102152.47;;;8.75;40.68
34237;BME280;20501;45.956;13.632;2023-02-12T05:27:03;102147.03;;;7.79;41.62
34237;BME280;20501;45.956;13.632;2023-02-12T05:29:28;102143.22;;;8.49;39.62
34237;BME280;20501;45.956;13.632;2023-02-12T05:31:54;102140.94;;;7.59;39.42
34237;BME280;20501;45.956;13.632;2023-02-12T05:34:19;102145.44;;;7.59;43.11
34237;BME280;20501;45.956;13.632;2023-02-12T05:36:44;102145.84;;;7.85;42.64
34237;BME280;20501;45.956;13.632;2023-02-12T05:39:10;102142.41;;;8.79;40.64
34237;BME280;20501;45.956;13.632;2023-02-12T05:41:35;102152.03;;;9.13;39.90
34237;BME280;20501;45.956;13.632;2023-02-12T05:44:02;102155.63;;;9.28;39.68
34237;BME280;20501;45.956;13.632;2023-02-12T05:46:28;102148.44;;;9.43;39.35
34237;BME280;20501;45.956;13.632;2023-02-12T05:48:53;102156.31;;;8.07;42.00
34237;BME280;20501;45.956;13.632;2023-02-12T05:51:22;102165.28;;;7.74;40.65
34237;BME280;20501;45.956;13.632;2023-02-12T05:53:49;102157.53;;;6.62;41.68
34237;BME280;20501;45.956;13.632;2023-02-12T05:56:20;102156.31;;;6.87;43.51
34237;BME280;20501;45.956;13.632;2023-02-12T05:58:50;102159.91;;;7.74;42.01
34237;BME280;20501;45.956;13.632;2023-02-12T06:01:37;102173.38;;;7.90;42.06
34237;BME280;20501;45.956;13.632;2023-02-12T06:04:05;102159.44;;;8.31;41.78
34237;BME280;20501;45.956;13.632;2023-02-12T06:06:31;102157.41;;;8.52;41.05
34237;BME280;20501;45.956;13.632;2023-02-12T06:08:57;102167.09;;;8.39;39.73
34237;BME280;20501;45.956;13.632;2023-02-12T06:11:23;102170.75;;;8.54;41.21
34237;BME280;20501;45.956;13.632;2023-02-12T06:13:49;102167.16;;;8.70;40.59
34237;BME280;20501;45.956;13.632;2023-02-12T06:16:20;102165.53;;;8.35;38.20
34237;BME280;20501;45.956;13.632;2023-02-12T06:18:47;102158.78;;;9.21;39.49
34237;BME280;20501;45.956;13.632;2023-02-12T06:21:12;102153.03;;;9.27;39.66
34237;BME280;20501;45.956;13.632;2023-02-12T06:23:38;102163.88;;;5.64;42.45
34237;BME280;20501;45.956;13.632;2023-02-12T06:26:03;102165.50;;;3.70;46.75
34237;BME280;20501;45.956;13.632;2023-02-12T06:28:29;102166.91;;;3.80;48.62
34237;BME280;20501;45.956;13.632;2023-02-12T06:30:54;102160.25;;;3.43;48.15
34237;BME280;20501;45.956;13.632;2023-02-12T06:33:20;102157.63;;;3.91;48.26
34237;BME280;20501;45.956;13.632;2023-02-12T06:35:45;102161.19;;;5.64;47.83
34237;BME280;20501;45.956;13.632;2023-02-12T06:38:11;102156.75;;;5.44;47.31
34237;BME280;20501;45.956;13.632;2023-02-12T06:40:36;102161.56;;;6.15;45.85
34237;BME280;20501;45.956;13.632;2023-02-12T06:43:02;102160.22;;;6.62;45.75
34237;BME280;20501;45.956;13.632;2023-02-12T06:45:27;102162.53;;;7.92;42.82
34237;BME280;20501;45.956;13.632;2023-02-12T06:47:53;102159.50;;;8.94;40.67
34237;BME280;20501;45.956;13.632;2023-02-12T06:50:18;102160.44;;;7.30;40.14
34237;BME280;20501;45.956;13.632;2023-02-12T06:52:43;102171.03;;;8.65;41.09
34237;BME280;20501;45.956;13.632;2023-02-12T06:55:09;102171.75;;;9.00;40.52
34237;BME280;20501;45.956;13.632;2023-02-12T06:57:34;102168.44;;;9.25;39.98
34237;BME280;20501;45.956;13.632;2023-02-12T07:00:00;102172.94;;;8.47;40.16
34237;BME280;20501;45.956;13.632;2023-02-12T07:02:25;102180.59;;;8.55;40.24
34237;BME280;20501;45.956;13.632;2023-02-12T07:04:51;102190.59;;;5.04;44.06
34237;BME280;20501;45.956;13.632;2023-02-12T07:07:16;102194.28;;;6.62;45.77
34237;BME280;20501;45.956;13.632;2023-02-12T07:09:42;102205.69;;;6.85;42.20
34237;BME280;20501;45.956;13.632;2023-02-12T07:12:07;102207.34;;;6.50;43.78
34237;BME280;20501;45.956;13.632;2023-02-12T07:14:32;102199.25;;;7.93;42.57
34237;BME280;20501;45.956;13.632;2023-02-12T07:16:58;102196.22;;;8.48;41.25
34237;BME280;20501;45.956;13.632;2023-02-12T07:19:28;102202.63;;;7.63;43.13
34237;BME280;20501;45.956;13.632;2023-02-12T07:21:53;102200.03;;;7.08;41.86
34237;BME280;20501;45.956;13.632;2023-02-12T07:24:18;102195.19;;;7.68;43.04
34237;BME280;20501;45.956;13.632;2023-02-12T07:26:44;102207.56;;;7.54;42.01
34237;BME280;20501;45.956;13.632;2023-02-12T07:29:09;102214.34;;;8.45;41.69
34237;BME280;20501;45.956;13.632;2023-02-12T07:31:35;102212.72;;;8.42;41.04
34237;BME280;20501;45.956;13.632;2023-02-12T07:34:00;102210.47;;;8.50;40.24
34237;BME280;20501;45.956;13.632;2023-02-12T07:36:30;102214.13;;;8.81;40.59
34237;BME280;20501;45.956;13.632;2023-02-12T07:38:57;102214.44;;;8.91;40.32
34237;BME280;20501;45.956;13.632;2023-02-12T07:41:25;102217.72;;;9.12;39.68
34237;BME280;20501;45.956;13.632;2023-02-12T07:43:55;102212.75;;;7.57;42.64
34237;BME280;20501;45.956;13.632;2023-02-12T07:46:33;102224.63;;;8.86;41.17
34237;BME280;20501;45.956;13.632;2023-02-12T07:49:02;102227.06;;;8.91;40.90
34237;BME280;20501;45.956;13.632;2023-02-12T07:51:28;102230.16;;;8.99;39.82
34237;BME280;20501;45.956;13.632;2023-02-12T07:53:54;102233.09;;;8.30;40.15
34237;BME280;20501;45.956;13.632;2023-02-12T07:56:25;102231.31;;;8.13;42.66
34237;BME280;20501;45.956;13.632;2023-02-12T07:58:55;102218.66;;;8.15;42.38
34237;BME280;20501;45.956;13.632;2023-02-12T08:01:30;102222.31;;;8.80;41.28
34237;BME280;20501;45.956;13.632;2023-02-12T08:04:09;102220.00;;;9.04;41.37
34237;BME280;20501;45.956;13.632;2023-02-12T08:06:37;102222.50;;;8.43;39.13
34237;BME280;20501;45.956;13.632;2023-02-12T08:09:06;102226.34;;;8.39;42.25
34237;BME280;20501;45.956;13.632;2023-02-12T08:11:34;102226.66;;;7.83;42.92
34237;BME280;20501;45.956;13.632;2023-02-12T08:14:01;102229.34;;;7.83;42.93
34237;BME280;20501;45.956;13.632;2023-02-12T08:16:27;102217.94;;;8.77;41.53
34237;BME280;20501;45.956;13.632;2023-02-12T08:18:54;102226.47;;;9.16;40.99
34237;BME280;20501;45.956;13.632;2023-02-12T08:21:21;102223.41;;;8.92;40.65
34237;BME280;20501;45.956;13.632;2023-02-12T08:23:48;102231.34;;;7.80;43.44
34237;BME280;20501;45.956;13.632;2023-02-12T08:26:45;102227.69;;;7.81;43.11
34237;BME280;20501;45.956;13.632;2023-02-12T08:29:16;102234.19;;;7.77;42.88
34237;BME280;20501;45.956;13.632;2023-02-12T08:31:44;102245.06;;;8.74;42.30
34237;BME280;20501;45.956;13.632;2023-02-12T08:34:18;102244.09;;;9.38;40.85
34237;BME280;20501;45.956;13.632;2023-02-12T08:36:45;102245.56;;;8.65;42.25
34237;BME280;20501;45.956;13.632;2023-02-12T08:39:11;102251.97;;;7.26;43.92
34237;BME280;20501;45.956;13.632;2023-02-12T08:41:37;102249.31;;;7.62;44.36
34237;BME280;20501;45.956;13.632;2023-02-12T08:44:04;102260.91;;;6.34;45.54
34237;BME280;20501;45.956;13.632;2023-02-12T08:46:35;102264.22;;;6.78;45.85
34237;BME280;20501;45.956;13.632;2023-02-12T08:49:07;102256.53;;;7.07;45.65
34237;BME280;20501;45.956;13.632;2023-02-12T08:51:35;102255.16;;;7.52;45.32
34237;BME280;20501;45.956;13.632;2023-02-12T08:54:04;102254.72;;;7.95;44.48
34237;BME280;20501;45.956;13.632;2023-02-12T08:56:32;102267.84;;;8.69;43.07
34237;BME280;20501;45.956;13.632;2023-02-12T08:58:59;102267.59;;;9.20;41.97
34237;BME280;20501;45.956;13.632;2023-02-12T09:01:29;102262.25;;;8.56;42.48
34237;BME280;20501;45.956;13.632;2023-02-12T09:03:55;102265.06;;;8.20;44.23
34237;BME280;20501;45.956;13.632;2023-02-12T09:06:22;102255.00;;;8.40;44.29
34237;BME280;20501;45.956;13.632;2023-02-12T09:08:48;102260.94;;;7.80;45.50
34237;BME280;20501;45.956;13.632;2023-02-12T09:11:20;102267.06;;;8.98;43.03
34237;BME280;20501;45.956;13.632;2023-02-12T09:13:48;102265.91;;;9.03;42.65
34237;BME280;20501;45.956;13.632;2023-02-12T09:16:14;102271.13;;;8.90;43.25
34237;BME280;20501;45.956;13.632;2023-02-12T09:18:40;102271.78;;;9.56;41.97
34237;BME280;20501;45.956;13.632;2023-02-12T09:21:10;102278.16;;;8.92;43.27
34237;BME280;20501;45.956;13.632;2023-02-12T09:23:37;102281.97;;;9.81;41.45
34237;BME280;20501;45.956;13.632;2023-02-12T09:26:04;102278.75;;;9.60;42.06
34237;BME280;20501;45.956;13.632;2023-02-12T09:28:30;102284.28;;;8.96;43.27
34237;BME280;20501;45.956;13.632;2023-02-12T09:30:55;102278.94;;;9.10;43.17
34237;BME280;20501;45.956;13.632;2023-02-12T09:33:22;102280.00;;;9.69;41.99
34237;BME280;20501;45.956;13.632;2023-02-12T09:35:47;102287.81;;;9.59;42.40
34237;BME280;20501;45.956;13.632;2023-02-12T09:38:13;102296.97;;;9.40;42.71
34237;BME280;20501;45.956;13.632;2023-02-12T09:43:46;102297.75;;;10.03;41.70
34237;BME280;20501;45.956;13.632;2023-02-12T09:46:15;102313.19;;;8.76;43.76
34237;BME280;20501;45.956;13.632;2023-02-12T09:51:11;102316.56;;;9.44;43.19
34237;BME280;20501;45.956;13.632;2023-02-12T09:53:40;102319.09;;;8.67;45.00
34237;BME280;20501;45.956;13.632;2023-02-12T09:56:20;102329.03;;;9.77;42.47
34237;BME280;20501;45.956;13.632;2023-02-12T09:58:58;102330.31;;;10.00;41.90
34237;BME280;20501;45.956;13.632;2023-02-12T10:01:27;102332.94;;;9.25;43.70
34237;BME280;20501;45.956;13.632;2023-02-12T10:03:53;102336.63;;;9.85;42.32
34237;BME280;20501;45.956;13.632;2023-02-12T10:06:28;102337.56;;;9.69;42.37
34237;BME280;20501;45.956;13.632;2023-02-12T10:11:52;102335.28;;;9.78;42.48
34237;BME280;20501;45.956;13.632;2023-02-12T10:27:45;102347.38;;;10.46;41.20
34237;BME280;20501;45.956;13.632;2023-02-12T10:32:45;102352.97;;;10.57;40.86
34237;BME280;20501;45.956;13.632;2023-02-12T10:35:16;102351.03;;;10.59;40.99
34237;BME280;20501;45.956;13.632;2023-02-12T10:37:47;102344.66;;;10.60;41.31
34237;BME280;20501;45.956;13.632;2023-02-12T10:40:24;102348.91;;;10.79;40.78
34237;BME280;20501;45.956;13.632;2023-02-12T10:42:55;102345.59;;;10.30;41.95
34237;BME280;20501;45.956;13.632;2023-02-12T10:45:48;102350.06;;;10.75;41.12
34237;BME280;20501;45.956;13.632;2023-02-12T10:48:22;102339.91;;;10.64;40.80
34237;BME280;20501;45.956;13.632;2023-02-12T10:53:39;102358.38;;;10.57;40.14
34237;BME280;20501;45.956;13.632;2023-02-12T10:56:13;102346.97;;;10.81;40.51
34237;BME280;20501;45.956;13.632;2023-02-12T11:03:53;102343.63;;;11.05;39.44
34237;BME280;20501;45.956;13.632;2023-02-12T11:06:27;102341.81;;;11.05;37.98
34237;BME280;20501;45.956;13.632;2023-02-12T11:08:53;102339.06;;;11.20;36.45
34237;BME280;20501;45.956;13.632;2023-02-12T11:11:25;102331.06;;;11.18;37.58
34237;BME280;20501;45.956;13.632;2023-02-12T11:16:34;102338.50;;;11.14;38.27
34237;BME280;20501;45.956;13.632;2023-02-12T11:19:03;102331.13;;;11.71;33.95
34237;BME280;20501;45.956;13.632;2023-02-12T11:21:30;102334.38;;;11.76;35.00
34237;BME280;20501;45.956;13.632;2023-02-12T11:23:56;102326.84;;;11.95;32.65
34237;BME280;20501;45.956;13.632;2023-02-12T11:26:28;102328.28;;;12.00;31.71
34237;BME280;20501;45.956;13.632;2023-02-12T11:29:00;102329.81;;;12.17;31.63
34237;BME280;20501;45.956;13.632;2023-02-12T11:31:31;102323.88;;;12.25;31.72
34237;BME280;20501;45.956;13.632;2023-02-12T11:36:29;102325.03;;;12.34;32.25
34237;BME280;20501;45.956;13.632;2023-02-12T11:38:57;102326.88;;;12.33;31.87
34237;BME280;20501;45.956;13.632;2023-02-12T11:41:34;102328.47;;;12.49;31.82
34237;BME280;20501;45.956;13.632;2023-02-12T11:44:07;102322.41;;;12.58;31.71
34237;BME280;20501;45.956;13.632;2023-02-12T11:46:33;102318.53;;;12.49;31.08
34237;BME280;20501;45.956;13.632;2023-02-12T11:49:00;102324.13;;;12.59;31.95
34237;BME280;20501;45.956;13.632;2023-02-12T11:51:29;102311.69;;;12.57;32.56
34237;BME280;20501;45.956;13.632;2023-02-12T11:54:01;102312.28;;;12.86;31.07
34237;BME280;20501;45.956;13.632;2023-02-12T11:56:42;102310.72;;;12.95;31.60
34237;BME280;20501;45.956;13.632;2023-02-12T11:59:39;102301.22;;;12.89;31.47
34237;BME280;20501;45.956;13.632;2023-02-12T12:02:33;102300.75;;;13.20;31.53
34237;BME280;20501;45.956;13.632;2023-02-12T12:05:24;102311.22;;;13.37;30.46
34237;BME280;20501;45.956;13.632;2023-02-12T12:07:58;102308.06;;;13.79;30.13
34237;BME280;20501;45.956;13.632;2023-02-12T12:10:40;102316.06;;;13.69;30.23
34237;BME280;20501;45.956;13.632;2023-02-12T12:13:18;102314.00;;;13.84;30.58
34237;BME280;20501;45.956;13.632;2023-02-12T12:15:50;102308.06;;;13.90;30.53
34237;BME280;20501;45.956;13.632;2023-02-12T12:18:49;102304.91;;;14.08;30.37
34237;BME280;20501;45.956;13.632;2023-02-12T12:24:56;102305.53;;;14.12;29.92
34237;BME280;20501;45.956;13.632;2023-02-12T12:27:51;102297.50;;;14.10;29.81
34237;BME280;20501;45.956;13.632;2023-02-12T12:30:38;102306.38;;;14.01;30.20
34237;BME280;20501;45.956;13.632;2023-02-12T12:33:16;102303.28;;;14.05;30.40
34237;BME280;20501;45.956;13.632;2023-02-12T12:41:26;102304.03;;;14.07;30.42
34237;BME280;20501;45.956;13.632;2023-02-12T12:47:08;102293.38;;;13.93;31.07
34237;BME280;20501;45.956;13.632;2023-02-12T12:49:51;102298.06;;;13.44;31.93
34237;BME280;20501;45.956;13.632;2023-02-12T12:52:30;102299.47;;;13.12;33.07
34237;BME280;20501;45.956;13.632;2023-02-12T12:55:07;102300.03;;;13.29;32.32
34237;BME280;20501;45.956;13.632;2023-02-12T13:10:50;102311.38;;;12.98;33.17
34237;BME280;20501;45.956;13.632;2023-02-12T13:13:25;102319.31;;;12.89;34.03
34237;BME280;20501;45.956;13.632;2023-02-12T13:23:45;102316.72;;;12.24;34.94
34237;BME280;20501;45.956;13.632;2023-02-12T13:29:28;102322.75;;;12.66;33.80
34237;BME280;20501;45.956;13.632;2023-02-12T13:32:29;102326.25;;;12.30;35.91
34237;BME280;20501;45.956;13.632;2023-02-12T13:34:57;102327.59;;;12.61;33.88
34237;BME280;20501;45.956;13.632;2023-02-12T13:37:40;102333.25;;;12.45;34.71
34237;BME280;20501;45.956;13.632;2023-02-12T13:40:14;102329.69;;;12.32;34.25
34237;BME280;20501;45.956;13.632;2023-02-12T13:45:58;102332.28;;;12.46;33.71
34237;BME280;20501;45.956;13.632;2023-02-12T13:56:43;102332.50;;;12.43;35.43
34237;BME280;20501;45.956;13.632;2023-02-12T14:04:45;102342.91;;;12.23;35.81
34237;BME280;20501;45.956;13.632;2023-02-12T14:07:15;102347.44;;;12.10;37.23
34237;BME280;20501;45.956;13.632;2023-02-12T14:09:41;102340.53;;;12.06;36.79
34237;BME280;20501;45.956;13.632;2023-02-12T14:20:06;102346.84;;;11.79;36.84
34237;BME280;20501;45.956;13.632;2023-02-12T14:25:00;102349.34;;;11.95;35.10
34237;BME280;20501;45.956;13.632;2023-02-12T14:27:33;102352.75;;;11.99;34.88
34237;BME280;20501;45.956;13.632;2023-02-12T14:30:23;102355.66;;;11.96;36.03
34237;BME280;20501;45.956;13.632;2023-02-12T14:35:32;102362.56;;;11.87;36.28
34237;BME280;20501;45.956;13.632;2023-02-12T14:38:55;102363.38;;;12.02;36.03
34237;BME280;20501;45.956;13.632;2023-02-12T14:40:51;102368.16;;;12.11;34.48
34237;BME280;20501;45.956;13.632;2023-02-12T14:45:50;102366.41;;;12.10;35.56
34237;BME280;20501;45.956;13.632;2023-02-12T14:48:39;102360.03;;;12.11;35.22
34237;BME280;20501;45.956;13.632;2023-02-12T14:51:15;102369.81;;;12.14;35.21
34237;BME280;20501;45.956;13.632;2023-02-12T14:53:44;102369.13;;;12.10;35.14
34237;BME280;20501;45.956;13.632;2023-02-12T14:56:11;102369.38;;;12.07;34.99
34237;BME280;20501;45.956;13.632;2023-02-12T14:58:37;102367.19;;;11.99;35.67
34237;BME280;20501;45.956;13.632;2023-02-12T15:01:03;102372.72;;;11.98;35.55
34237;BME280;20501;45.956;13.632;2023-02-12T15:03:47;102372.00;;;11.94;35.88
34237;BME280;20501;45.956;13.632;2023-02-12T15:06:38;102384.47;;;11.97;36.01
34237;BME280;20501;45.956;13.632;2023-02-12T15:09:19;102393.31;;;11.86;36.65
34237;BME280;20501;45.956;13.632;2023-02-12T15:12:00;102389.38;;;11.77;35.72
34237;BME280;20501;45.956;13.632;2023-02-12T15:14:30;102393.63;;;11.81;34.74
34237;BME280;20501;45.956;13.632;2023-02-12T15:17:18;102393.63;;;11.81;35.57
34237;BME280;20501;45.956;13.632;2023-02-12T15:20:28;102392.88;;;11.79;35.59
34237;BME280;20501;45.956;13.632;2023-02-12T15:22:40;102391.13;;;11.78;36.48
34237;BME280;20501;45.956;13.632;2023-02-12T15:25:24;102397.41;;;11.66;35.35
34237;BME280;20501;45.956;13.632;2023-02-12T15:30:23;102400.66;;;11.71;36.19
34237;BME280;20501;45.956;13.632;2023-02-12T15:32:50;102393.50;;;11.70;36.84
34237;BME280;20501;45.956;13.632;2023-02-12T15:37:48;102399.88;;;11.69;38.01